sensor_id;sensor_type;location;lat;lon;timestamp;pressure;altitude;pressure_sealevel;temperature;humidity
47082;BME280;33066;49.296;14.470;2022-07-21T00:00:08;97110.79;;;28.00;29.71
47082;BME280;33066;49.296;14.470;2022-07-21T00:02:33;97114.01;;;27.88;29.87
47082;BME280;33066;49.296;14.470;2022-07-21T00:04:59;97113.64;;;27.66;29.92
47082;BME280;33066;49.296;14.470;2022-07-21T00:07:23;97117.74;;;27.69;29.84
47082;BME280;33066;49.296;14.470;2022-07-21T00:09:49;97116.81;;;27.92;30.14
47082;BME280;33066;49.296;14.470;2022-07-21T00:12:15;97115.66;;;27.93;30.00
47082;BME280;33066;49.296;14.470;2022-07-21T00:14:40;97110.31;;;27.93;30.45
47082;BME280;33066;49.296;14.470;2022-07-21T00:17:07;97107.35;;;27.90;30.91
47082;BME280;33066;49.296;14.470;2022-07-21T00:19:31;97108.28;;;27.86;31.20
47082;BME280;33066;49.296;14.470;2022-07-21T00:21:56;97108.62;;;27.76;31.76
47082;BME280;33066;49.296;14.470;2022-07-21T00:24:22;97118.04;;;27.55;32.24
47082;BME280;33066;49.296;14.470;2022-07-21T00:26:47;97123.66;;;27.42;32.59
47082;BME280;33066;49.296;14.470;2022-07-21T00:29:13;97124.58;;;27.57;32.69
47082;BME280;33066;49.296;14.470;2022-07-21T00:31:38;97123.23;;;27.71;32.73
47082;BME280;33066;49.296;14.470;2022-07-21T00:34:04;97122.37;;;27.44;32.53
47082;BME280;33066;49.296;14.470;2022-07-21T00:36:28;97119.09;;;27.38;32.37
47082;BME280;33066;49.296;14.470;2022-07-21T00:38:53;97115.47;;;27.11;32.72
47082;BME280;33066;49.296;14.470;2022-07-21T00:41:19;97109.76;;;27.05;33.01
47082;BME280;33066;49.296;14.470;2022-07-21T00:43:44;97107.54;;;27.50;33.09
47082;BME280;33066;49.296;14.470;2022-07-21T00:46:09;97108.14;;;27.16;33.37
47082;BME280;33066;49.296;14.470;2022-07-21T00:48:35;97108.43;;;27.40;33.26
47082;BME280;33066;49.296;14.470;2022-07-21T00:51:00;97110.87;;;27.31;33.43
47082;BME280;33066;49.296;14.470;2022-07-21T00:53:25;97109.02;;;27.32;33.31
47082;BME280;33066;49.296;14.470;2022-07-21T00:55:50;97105.59;;;26.99;33.32
47082;BME280;33066;49.296;14.470;2022-07-21T00:58:15;97101.37;;;26.90;33.35
47082;BME280;33066;49.296;14.470;2022-07-21T01:00:41;97104.92;;;27.04;33.39
47082;BME280;33066;49.296;14.470;2022-07-21T01:03:06;97105.33;;;26.77;33.38
47082;BME280;33066;49.296;14.470;2022-07-21T01:05:30;97104.41;;;26.96;33.30
47082;BME280;33066;49.296;14.470;2022-07-21T01:07:56;97100.08;;;26.44;33.26
47082;BME280;33066;49.296;14.470;2022-07-21T01:10:23;97097.74;;;26.85;33.34
47082;BME280;33066;49.296;14.470;2022-07-21T01:12:47;97097.38;;;26.82;33.37
47082;BME280;33066;49.296;14.470;2022-07-21T01:15:13;97094.94;;;26.70;33.48
47082;BME280;33066;49.296;14.470;2022-07-21T01:17:38;97093.55;;;26.62;33.49
47082;BME280;33066;49.296;14.470;2022-07-21T01:20:05;97092.21;;;26.52;33.53
47082;BME280;33066;49.296;14.470;2022-07-21T01:22:28;97092.99;;;26.20;33.27
47082;BME280;33066;49.296;14.470;2022-07-21T01:24:53;97094.93;;;26.41;33.29
47082;BME280;33066;49.296;14.470;2022-07-21T01:27:18;97092.36;;;26.33;33.27
47082;BME280;33066;49.296;14.470;2022-07-21T01:29:43;97086.19;;;26.60;33.32
47082;BME280;33066;49.296;14.470;2022-07-21T01:32:09;97083.07;;;26.58;33.25
47082;BME280;33066;49.296;14.470;2022-07-21T01:34:34;97082.72;;;26.60;33.43
47082;BME280;33066;49.296;14.470;2022-07-21T01:36:59;97087.47;;;26.37;33.54
47082;BME280;33066;49.296;14.470;2022-07-21T01:39:24;97090.96;;;26.33;33.73
47082;BME280;33066;49.296;14.470;2022-07-21T01:41:49;97088.86;;;26.67;33.35
47082;BME280;33066;49.296;14.470;2022-07-21T01:44:14;97085.85;;;26.32;32.94
47082;BME280;33066;49.296;14.470;2022-07-21T01:46:41;97090.61;;;26.57;32.69
47082;BME280;33066;49.296;14.470;2022-07-21T01:49:05;97095.75;;;26.38;32.31
47082;BME280;33066;49.296;14.470;2022-07-21T01:51:30;97100.49;;;26.57;32.10
47082;BME280;33066;49.296;14.470;2022-07-21T01:53:55;97105.94;;;26.26;32.13
47082;BME280;33066;49.296;14.470;2022-07-21T01:56:21;97113.88;;;26.08;32.16
47082;BME280;33066;49.296;14.470;2022-07-21T01:58:45;97126.18;;;26.30;32.23
47082;BME280;33066;49.296;14.470;2022-07-21T02:01:11;97135.63;;;26.47;32.11
47082;BME280;33066;49.296;14.470;2022-07-21T02:03:36;97136.21;;;25.94;32.00
47082;BME280;33066;49.296;14.470;2022-07-21T02:06:02;97131.40;;;25.95;31.52
47082;BME280;33066;49.296;14.470;2022-07-21T02:08:26;97130.39;;;26.00;31.44
47082;BME280;33066;49.296;14.470;2022-07-21T02:10:51;97130.58;;;26.26;31.92
47082;BME280;33066;49.296;14.470;2022-07-21T02:13:16;97136.42;;;26.20;32.22
47082;BME280;33066;49.296;14.470;2022-07-21T02:15:42;97137.86;;;26.14;32.46
47082;BME280;33066;49.296;14.470;2022-07-21T02:18:07;97139.35;;;26.08;32.51
47082;BME280;33066;49.296;14.470;2022-07-21T02:20:32;97143.72;;;26.00;32.57
47082;BME280;33066;49.296;14.470;2022-07-21T02:22:57;97151.69;;;25.97;32.72
47082;BME280;33066;49.296;14.470;2022-07-21T02:25:23;97150.91;;;25.96;32.62
47082;BME280;33066;49.296;14.470;2022-07-21T02:27:48;97148.84;;;25.88;32.98
47082;BME280;33066;49.296;14.470;2022-07-21T02:30:13;97148.65;;;25.83;33.33
47082;BME280;33066;49.296;14.470;2022-07-21T02:32:38;97139.19;;;25.78;33.40
47082;BME280;33066;49.296;14.470;2022-07-21T02:35:05;97131.56;;;25.75;33.54
47082;BME280;33066;49.296;14.470;2022-07-21T02:37:30;97135.41;;;25.97;33.57
47082;BME280;33066;49.296;14.470;2022-07-21T02:39:55;97139.15;;;25.94;33.70
47082;BME280;33066;49.296;14.470;2022-07-21T02:42:20;97139.62;;;25.88;33.52
47082;BME280;33066;49.296;14.470;2022-07-21T02:44:45;97139.57;;;25.89;33.60
47082;BME280;33066;49.296;14.470;2022-07-21T02:47:11;97141.79;;;25.86;33.36
47082;BME280;33066;49.296;14.470;2022-07-21T02:49:36;97144.90;;;25.64;33.21
47082;BME280;33066;49.296;14.470;2022-07-21T02:52:01;97146.96;;;25.66;32.84
47082;BME280;33066;49.296;14.470;2022-07-21T02:54:27;97147.64;;;25.90;32.75
47082;BME280;33066;49.296;14.470;2022-07-21T02:56:52;97154.42;;;25.93;32.76
47082;BME280;33066;49.296;14.470;2022-07-21T02:59:16;97147.10;;;25.89;32.69
47082;BME280;33066;49.296;14.470;2022-07-21T03:01:42;97145.14;;;25.90;32.76
47082;BME280;33066;49.296;14.470;2022-07-21T03:04:07;97143.78;;;25.60;33.08
47082;BME280;33066;49.296;14.470;2022-07-21T03:06:32;97142.82;;;25.78;33.27
47082;BME280;33066;49.296;14.470;2022-07-21T03:08:58;97144.64;;;25.52;33.29
47082;BME280;33066;49.296;14.470;2022-07-21T03:12:59;97150.75;;;25.70;33.32
47082;BME280;33066;49.296;14.470;2022-07-21T03:15:25;97153.75;;;25.61;33.52
47082;BME280;33066;49.296;14.470;2022-07-21T03:17:50;97170.69;;;25.81;33.45
47082;BME280;33066;49.296;14.470;2022-07-21T03:20:16;97188.76;;;25.63;33.11
47082;BME280;33066;49.296;14.470;2022-07-21T03:22:41;97167.42;;;25.84;32.88
47082;BME280;33066;49.296;14.470;2022-07-21T03:25:07;97179.19;;;25.40;32.85
47082;BME280;33066;49.296;14.470;2022-07-21T03:27:32;97185.42;;;25.91;32.82
47082;BME280;33066;49.296;14.470;2022-07-21T03:29:57;97172.67;;;25.66;32.67
47082;BME280;33066;49.296;14.470;2022-07-21T03:32:22;97190.86;;;25.80;32.64
47082;BME280;33066;49.296;14.470;2022-07-21T03:34:47;97165.25;;;25.49;32.72
47082;BME280;33066;49.296;14.470;2022-07-21T03:37:13;97171.94;;;25.61;33.08
47082;BME280;33066;49.296;14.470;2022-07-21T03:39:38;97172.61;;;25.52;33.33
47082;BME280;33066;49.296;14.470;2022-07-21T03:42:03;97166.64;;;25.50;33.36
47082;BME280;33066;49.296;14.470;2022-07-21T03:44:28;97170.58;;;25.48;33.48
47082;BME280;33066;49.296;14.470;2022-07-21T03:46:53;97172.17;;;25.27;33.40
47082;BME280;33066;49.296;14.470;2022-07-21T03:49:18;97171.43;;;25.56;33.26
47082;BME280;33066;49.296;14.470;2022-07-21T03:51:44;97171.25;;;25.55;33.26
47082;BME280;33066;49.296;14.470;2022-07-21T03:54:10;97171.52;;;25.52;33.36
47082;BME280;33066;49.296;14.470;2022-07-21T03:56:34;97179.41;;;25.26;33.56
47082;BME280;33066;49.296;14.470;2022-07-21T03:58:59;97178.25;;;25.54;33.55
47082;BME280;33066;49.296;14.470;2022-07-21T04:01:25;97173.03;;;25.51;33.58
47082;BME280;33066;49.296;14.470;2022-07-21T04:03:50;97173.78;;;25.49;33.74
47082;BME280;33066;49.296;14.470;2022-07-21T04:06:16;97178.69;;;25.49;33.78
47082;BME280;33066;49.296;14.470;2022-07-21T04:08:41;97173.74;;;25.48;33.52
47082;BME280;33066;49.296;14.470;2022-07-21T04:11:07;97173.46;;;25.46;33.75
47082;BME280;33066;49.296;14.470;2022-07-21T04:13:32;97169.12;;;25.44;33.83
47082;BME280;33066;49.296;14.470;2022-07-21T04:15:57;97168.83;;;25.41;33.99
47082;BME280;33066;49.296;14.470;2022-07-21T04:18:22;97162.71;;;25.66;34.00
47082;BME280;33066;49.296;14.470;2022-07-21T04:20:47;97156.52;;;25.38;34.07
47082;BME280;33066;49.296;14.470;2022-07-21T04:23:12;97153.39;;;25.35;34.17
47082;BME280;33066;49.296;14.470;2022-07-21T04:25:37;97154.04;;;25.35;34.29
47082;BME280;33066;49.296;14.470;2022-07-21T04:28:04;97158.22;;;25.36;33.95
47082;BME280;33066;49.296;14.470;2022-07-21T04:30:29;97166.40;;;25.34;33.46
47082;BME280;33066;49.296;14.470;2022-07-21T04:32:54;97178.98;;;25.26;33.46
47082;BME280;33066;49.296;14.470;2022-07-21T04:35:20;97187.73;;;25.31;33.45
47082;BME280;33066;49.296;14.470;2022-07-21T04:37:45;97186.81;;;25.35;33.33
47082;BME280;33066;49.296;14.470;2022-07-21T04:40:13;97188.13;;;25.43;33.12
47082;BME280;33066;49.296;14.470;2022-07-21T04:42:37;97205.96;;;25.48;33.06
47082;BME280;33066;49.296;14.470;2022-07-21T04:45:02;97199.68;;;25.56;32.91
47082;BME280;33066;49.296;14.470;2022-07-21T04:47:27;97191.85;;;25.61;32.97
47082;BME280;33066;49.296;14.470;2022-07-21T04:49:53;97185.76;;;25.70;33.41
47082;BME280;33066;49.296;14.470;2022-07-21T04:52:18;97190.87;;;25.74;33.60
47082;BME280;33066;49.296;14.470;2022-07-21T04:54:43;97190.41;;;25.79;33.55
47082;BME280;33066;49.296;14.470;2022-07-21T04:57:08;97188.79;;;25.84;33.58
47082;BME280;33066;49.296;14.470;2022-07-21T04:59:34;97189.57;;;25.94;33.68
47082;BME280;33066;49.296;14.470;2022-07-21T05:02:01;97191.31;;;26.03;33.72
47082;BME280;33066;49.296;14.470;2022-07-21T05:04:25;97197.76;;;26.16;33.56
47082;BME280;33066;49.296;14.470;2022-07-21T05:06:50;97190.46;;;25.99;33.19
47082;BME280;33066;49.296;14.470;2022-07-21T05:09:15;97175.84;;;26.06;33.18
47082;BME280;33066;49.296;14.470;2022-07-21T05:11:41;97164.45;;;26.17;33.33
47082;BME280;33066;49.296;14.470;2022-07-21T05:14:06;97164.98;;;26.27;33.28
47082;BME280;33066;49.296;14.470;2022-07-21T05:16:32;97169.41;;;26.12;33.13
47082;BME280;33066;49.296;14.470;2022-07-21T05:18:57;97175.26;;;26.45;33.09
47082;BME280;33066;49.296;14.470;2022-07-21T05:21:22;97186.28;;;26.29;33.00
47082;BME280;33066;49.296;14.470;2022-07-21T05:23:48;97197.49;;;26.04;32.96
47082;BME280;33066;49.296;14.470;2022-07-21T05:26:14;97192.87;;;26.20;32.95
47082;BME280;33066;49.296;14.470;2022-07-21T05:28:39;97191.28;;;26.27;33.03
47082;BME280;33066;49.296;14.470;2022-07-21T05:31:04;97196.29;;;26.26;32.58
47082;BME280;33066;49.296;14.470;2022-07-21T05:33:29;97187.59;;;25.57;32.25
47082;BME280;33066;49.296;14.470;2022-07-21T05:35:54;97172.49;;;26.92;32.20
47082;BME280;33066;49.296;14.470;2022-07-21T05:38:20;97167.98;;;26.93;32.80
47082;BME280;33066;49.296;14.470;2022-07-21T05:40:44;97173.07;;;26.99;32.74
47082;BME280;33066;49.296;14.470;2022-07-21T05:43:10;97175.00;;;26.99;32.72
47082;BME280;33066;49.296;14.470;2022-07-21T05:45:35;97170.85;;;27.05;32.53
47082;BME280;33066;49.296;14.470;2022-07-21T05:48:01;97168.47;;;26.93;32.62
47082;BME280;33066;49.296;14.470;2022-07-21T05:50:26;97179.46;;;26.95;32.70
47082;BME280;33066;49.296;14.470;2022-07-21T05:52:52;97190.91;;;27.12;32.50
47082;BME280;33066;49.296;14.470;2022-07-21T05:55:17;97192.57;;;27.10;32.60
47082;BME280;33066;49.296;14.470;2022-07-21T05:57:42;97187.73;;;26.96;32.77
47082;BME280;33066;49.296;14.470;2022-07-21T06:00:09;97189.78;;;27.09;32.76
47082;BME280;33066;49.296;14.470;2022-07-21T06:02:32;97192.60;;;27.10;33.21
47082;BME280;33066;49.296;14.470;2022-07-21T06:04:58;97188.47;;;26.95;33.34
47082;BME280;33066;49.296;14.470;2022-07-21T06:07:23;97193.04;;;27.09;33.22
47082;BME280;33066;49.296;14.470;2022-07-21T06:09:48;97198.82;;;27.19;33.29
47082;BME280;33066;49.296;14.470;2022-07-21T06:12:14;97195.75;;;27.50;33.18
47082;BME280;33066;49.296;14.470;2022-07-21T06:14:39;97200.42;;;27.42;33.09
47082;BME280;33066;49.296;14.470;2022-07-21T06:17:04;97198.32;;;27.40;32.99
47082;BME280;33066;49.296;14.470;2022-07-21T06:19:29;97192.97;;;27.80;33.11
47082;BME280;33066;49.296;14.470;2022-07-21T06:21:55;97200.27;;;27.91;32.92
47082;BME280;33066;49.296;14.470;2022-07-21T06:24:20;97202.59;;;28.00;32.82
47082;BME280;33066;49.296;14.470;2022-07-21T06:26:46;97202.94;;;28.11;32.73
47082;BME280;33066;49.296;14.470;2022-07-21T06:29:12;97208.96;;;28.21;32.76
47082;BME280;33066;49.296;14.470;2022-07-21T06:31:37;97205.83;;;28.29;32.91
47082;BME280;33066;49.296;14.470;2022-07-21T06:34:02;97204.67;;;28.44;32.89
47082;BME280;33066;49.296;14.470;2022-07-21T06:36:27;97207.82;;;28.34;33.09
47082;BME280;33066;49.296;14.470;2022-07-21T06:38:52;97205.98;;;28.23;32.96
47082;BME280;33066;49.296;14.470;2022-07-21T06:41:18;97210.90;;;28.51;32.91
47082;BME280;33066;49.296;14.470;2022-07-21T06:43:44;97208.14;;;28.32;33.04
47082;BME280;33066;49.296;14.470;2022-07-21T06:46:09;97206.03;;;28.44;32.84
47082;BME280;33066;49.296;14.470;2022-07-21T06:48:35;97205.74;;;28.54;33.06
47082;BME280;33066;49.296;14.470;2022-07-21T06:51:00;97207.97;;;28.60;33.40
47082;BME280;33066;49.296;14.470;2022-07-21T06:53:26;97210.42;;;28.69;33.43
47082;BME280;33066;49.296;14.470;2022-07-21T06:55:52;97213.25;;;28.79;33.24
47082;BME280;33066;49.296;14.470;2022-07-21T06:58:19;97208.20;;;28.89;32.93
47082;BME280;33066;49.296;14.470;2022-07-21T07:00:44;97206.72;;;28.95;33.06
47082;BME280;33066;49.296;14.470;2022-07-21T07:03:08;97209.96;;;28.84;32.81
47082;BME280;33066;49.296;14.470;2022-07-21T07:05:33;97212.13;;;28.90;32.52
47082;BME280;33066;49.296;14.470;2022-07-21T07:07:59;97214.68;;;28.91;32.20
47082;BME280;33066;49.296;14.470;2022-07-21T07:10:24;97215.12;;;28.95;32.19
47082;BME280;33066;49.296;14.470;2022-07-21T07:12:49;97215.32;;;29.05;31.93
47082;BME280;33066;49.296;14.470;2022-07-21T07:15:15;97219.85;;;28.85;32.50
47082;BME280;33066;49.296;14.470;2022-07-21T07:17:41;97215.36;;;29.23;32.18
47082;BME280;33066;49.296;14.470;2022-07-21T07:20:08;97213.18;;;29.04;31.79
47082;BME280;33066;49.296;14.470;2022-07-21T07:22:32;97213.39;;;29.26;31.43
47082;BME280;33066;49.296;14.470;2022-07-21T07:24:57;97211.56;;;29.53;31.45
47082;BME280;33066;49.296;14.470;2022-07-21T07:27:23;97209.37;;;29.65;30.72
47082;BME280;33066;49.296;14.470;2022-07-21T07:29:49;97212.33;;;29.42;30.33
47082;BME280;33066;49.296;14.470;2022-07-21T07:32:14;97215.46;;;29.29;30.41
47082;BME280;33066;49.296;14.470;2022-07-21T07:34:40;97219.92;;;29.60;30.68
47082;BME280;33066;49.296;14.470;2022-07-21T07:37:06;97217.70;;;29.71;30.71
47082;BME280;33066;49.296;14.470;2022-07-21T07:39:31;97223.91;;;29.53;30.75
47082;BME280;33066;49.296;14.470;2022-07-21T07:41:57;97221.86;;;29.94;30.35
47082;BME280;33066;49.296;14.470;2022-07-21T07:44:23;97220.19;;;29.77;30.58
47082;BME280;33066;49.296;14.470;2022-07-21T07:46:48;97219.13;;;29.90;30.31
47082;BME280;33066;49.296;14.470;2022-07-21T07:49:14;97219.53;;;29.72;30.30
47082;BME280;33066;49.296;14.470;2022-07-21T07:51:40;97223.07;;;29.78;30.32
47082;BME280;33066;49.296;14.470;2022-07-21T07:54:05;97225.52;;;29.81;30.15
47082;BME280;33066;49.296;14.470;2022-07-21T07:56:30;97222.61;;;29.73;30.08
47082;BME280;33066;49.296;14.470;2022-07-21T07:58:55;97221.36;;;29.83;30.43
47082;BME280;33066;49.296;14.470;2022-07-21T08:01:21;97220.97;;;30.18;30.97
47082;BME280;33066;49.296;14.470;2022-07-21T08:03:46;97225.76;;;30.17;30.86
47082;BME280;33066;49.296;14.470;2022-07-21T08:06:11;97225.69;;;30.20;30.27
47082;BME280;33066;49.296;14.470;2022-07-21T08:08:37;97220.81;;;29.99;30.18
47082;BME280;33066;49.296;14.470;2022-07-21T08:11:03;97221.90;;;30.30;30.55
47082;BME280;33066;49.296;14.470;2022-07-21T08:13:28;97225.03;;;30.34;31.12
47082;BME280;33066;49.296;14.470;2022-07-21T08:15:54;97223.71;;;30.51;31.32
47082;BME280;33066;49.296;14.470;2022-07-21T08:18:19;97222.79;;;30.59;30.78
47082;BME280;33066;49.296;14.470;2022-07-21T08:20:45;97219.33;;;30.37;30.10
47082;BME280;33066;49.296;14.470;2022-07-21T08:23:11;97221.02;;;30.66;29.90
47082;BME280;33066;49.296;14.470;2022-07-21T08:25:36;97217.93;;;30.47;29.63
47082;BME280;33066;49.296;14.470;2022-07-21T08:28:02;97223.32;;;30.38;29.41
47082;BME280;33066;49.296;14.470;2022-07-21T08:30:27;97229.63;;;30.42;29.89
47082;BME280;33066;49.296;14.470;2022-07-21T08:32:52;97225.40;;;30.40;30.16
47082;BME280;33066;49.296;14.470;2022-07-21T08:35:18;97224.98;;;30.76;30.06
47082;BME280;33066;49.296;14.470;2022-07-21T08:37:53;97225.43;;;30.71;30.09
47082;BME280;33066;49.296;14.470;2022-07-21T08:40:10;97227.66;;;30.90;29.84
47082;BME280;33066;49.296;14.470;2022-07-21T08:42:35;97226.14;;;30.98;30.10
47082;BME280;33066;49.296;14.470;2022-07-21T08:45:00;97228.53;;;31.03;29.52
47082;BME280;33066;49.296;14.470;2022-07-21T08:47:26;97240.23;;;31.20;29.71
47082;BME280;33066;49.296;14.470;2022-07-21T08:49:51;97234.87;;;30.92;29.29
47082;BME280;33066;49.296;14.470;2022-07-21T08:52:17;97236.98;;;31.10;29.36
47082;BME280;33066;49.296;14.470;2022-07-21T08:54:42;97228.16;;;31.03;29.34
47082;BME280;33066;49.296;14.470;2022-07-21T08:57:07;97231.86;;;31.20;29.38
47082;BME280;33066;49.296;14.470;2022-07-21T08:59:32;97234.49;;;31.23;29.51
47082;BME280;33066;49.296;14.470;2022-07-21T09:01:58;97229.09;;;31.06;29.51
47082;BME280;33066;49.296;14.470;2022-07-21T09:04:25;97226.01;;;31.21;29.34
47082;BME280;33066;49.296;14.470;2022-07-21T09:06:51;97226.11;;;31.11;29.14
47082;BME280;33066;49.296;14.470;2022-07-21T09:09:18;97222.65;;;30.98;28.98
47082;BME280;33066;49.296;14.470;2022-07-21T09:11:44;97219.99;;;31.44;28.60
47082;BME280;33066;49.296;14.470;2022-07-21T09:14:11;97220.42;;;31.32;28.63
47082;BME280;33066;49.296;14.470;2022-07-21T09:16:37;97221.21;;;31.38;28.47
47082;BME280;33066;49.296;14.470;2022-07-21T09:18:55;97220.46;;;31.54;28.67
47082;BME280;33066;49.296;14.470;2022-07-21T09:21:20;97215.45;;;31.88;28.76
47082;BME280;33066;49.296;14.470;2022-07-21T09:23:47;97216.48;;;31.70;28.26
47082;BME280;33066;49.296;14.470;2022-07-21T09:26:12;97218.96;;;31.83;28.40
47082;BME280;33066;49.296;14.470;2022-07-21T09:28:38;97214.30;;;31.83;28.19
47082;BME280;33066;49.296;14.470;2022-07-21T09:31:05;97218.11;;;31.95;28.00
47082;BME280;33066;49.296;14.470;2022-07-21T09:33:31;97222.92;;;31.89;27.61
47082;BME280;33066;49.296;14.470;2022-07-21T09:35:55;97214.19;;;31.68;27.58
47082;BME280;33066;49.296;14.470;2022-07-21T09:38:19;97216.43;;;32.27;27.71
47082;BME280;33066;49.296;14.470;2022-07-21T09:40:47;97213.39;;;32.04;27.54
47082;BME280;33066;49.296;14.470;2022-07-21T09:43:10;97208.07;;;32.15;27.67
47082;BME280;33066;49.296;14.470;2022-07-21T09:45:37;97211.41;;;31.95;27.58
47082;BME280;33066;49.296;14.470;2022-07-21T09:48:01;97212.44;;;32.05;27.12
47082;BME280;33066;49.296;14.470;2022-07-21T09:50:26;97215.85;;;32.02;26.57
47082;BME280;33066;49.296;14.470;2022-07-21T09:52:54;97215.83;;;32.11;26.83
47082;BME280;33066;49.296;14.470;2022-07-21T09:55:17;97214.66;;;32.23;26.30
47082;BME280;33066;49.296;14.470;2022-07-21T09:57:43;97216.99;;;32.32;26.00
47082;BME280;33066;49.296;14.470;2022-07-21T10:00:11;97216.95;;;32.37;26.07
47082;BME280;33066;49.296;14.470;2022-07-21T10:02:34;97212.94;;;32.38;26.39
47082;BME280;33066;49.296;14.470;2022-07-21T10:05:03;97212.58;;;32.41;26.42
47082;BME280;33066;49.296;14.470;2022-07-21T10:07:26;97215.87;;;32.60;26.32
47082;BME280;33066;49.296;14.470;2022-07-21T10:09:51;97216.14;;;32.88;26.06
47082;BME280;33066;49.296;14.470;2022-07-21T10:12:17;97214.47;;;33.11;25.05
47082;BME280;33066;49.296;14.470;2022-07-21T10:14:43;97208.23;;;31.95;25.08
47082;BME280;33066;49.296;14.470;2022-07-21T10:17:08;97206.44;;;33.77;24.22
47082;BME280;33066;49.296;14.470;2022-07-21T10:19:41;97211.89;;;33.91;24.02
47082;BME280;33066;49.296;14.470;2022-07-21T10:22:04;97206.36;;;33.74;24.31
47082;BME280;33066;49.296;14.470;2022-07-21T10:24:27;97205.21;;;33.85;24.57
47082;BME280;33066;49.296;14.470;2022-07-21T10:27:00;97200.44;;;34.27;24.03
47082;BME280;33066;49.296;14.470;2022-07-21T10:31:42;97200.90;;;34.59;23.34
47082;BME280;33066;49.296;14.470;2022-07-21T10:34:05;97201.78;;;34.64;23.00
47082;BME280;33066;49.296;14.470;2022-07-21T10:36:41;97203.03;;;34.67;22.84
47082;BME280;33066;49.296;14.470;2022-07-21T10:43:48;97200.22;;;35.47;23.59
47082;BME280;33066;49.296;14.470;2022-07-21T10:48:47;97199.07;;;36.05;21.97
47082;BME280;33066;49.296;14.470;2022-07-21T10:51:09;97200.10;;;36.47;21.78
47082;BME280;33066;49.296;14.470;2022-07-21T10:53:30;97197.66;;;36.38;21.67
47082;BME280;33066;49.296;14.470;2022-07-21T10:55:56;97196.83;;;36.99;21.47
47082;BME280;33066;49.296;14.470;2022-07-21T10:58:25;97194.58;;;36.60;21.78
47082;BME280;33066;49.296;14.470;2022-07-21T11:00:49;97198.34;;;36.46;21.60
47082;BME280;33066;49.296;14.470;2022-07-21T11:03:15;97193.97;;;36.10;22.03
47082;BME280;33066;49.296;14.470;2022-07-21T11:08:11;97201.19;;;35.44;22.67
47082;BME280;33066;49.296;14.470;2022-07-21T11:10:30;97208.94;;;35.24;22.63
47082;BME280;33066;49.296;14.470;2022-07-21T11:12:56;97209.57;;;34.85;23.12
47082;BME280;33066;49.296;14.470;2022-07-21T11:17:46;97215.01;;;34.77;23.52
47082;BME280;33066;49.296;14.470;2022-07-21T11:20:13;97208.89;;;34.58;23.35
47082;BME280;33066;49.296;14.470;2022-07-21T11:22:37;97214.42;;;34.69;23.67
47082;BME280;33066;49.296;14.470;2022-07-21T11:25:06;97211.28;;;34.95;23.61
47082;BME280;33066;49.296;14.470;2022-07-21T11:27:30;97208.57;;;35.01;23.26
47082;BME280;33066;49.296;14.470;2022-07-21T11:29:56;97199.81;;;35.14;23.30
47082;BME280;33066;49.296;14.470;2022-07-21T11:32:21;97208.67;;;35.14;23.44
47082;BME280;33066;49.296;14.470;2022-07-21T11:34:47;97212.48;;;34.98;23.66
47082;BME280;33066;49.296;14.470;2022-07-21T11:37:13;97209.22;;;35.06;23.22
47082;BME280;33066;49.296;14.470;2022-07-21T11:39:37;97207.89;;;35.51;22.60
47082;BME280;33066;49.296;14.470;2022-07-21T11:42:03;97209.79;;;35.29;22.74
47082;BME280;33066;49.296;14.470;2022-07-21T11:44:28;97212.19;;;35.53;22.34
47082;BME280;33066;49.296;14.470;2022-07-21T11:46:55;97203.98;;;36.01;22.63
47082;BME280;33066;49.296;14.470;2022-07-21T11:49:20;97205.04;;;36.62;21.67
47082;BME280;33066;49.296;14.470;2022-07-21T11:51:47;97199.49;;;36.60;21.64
47082;BME280;33066;49.296;14.470;2022-07-21T11:54:19;97204.71;;;36.95;20.82
47082;BME280;33066;49.296;14.470;2022-07-21T11:56:37;97206.02;;;37.20;21.15
47082;BME280;33066;49.296;14.470;2022-07-21T11:59:09;97200.91;;;36.89;21.20
47082;BME280;33066;49.296;14.470;2022-07-21T12:01:27;97201.57;;;36.79;21.30
47082;BME280;33066;49.296;14.470;2022-07-21T12:03:53;97204.10;;;36.89;21.53
47082;BME280;33066;49.296;14.470;2022-07-21T12:06:18;97206.08;;;37.25;20.53
47082;BME280;33066;49.296;14.470;2022-07-21T12:08:44;97208.22;;;37.45;20.53
47082;BME280;33066;49.296;14.470;2022-07-21T12:11:10;97201.32;;;37.72;20.59
47082;BME280;33066;49.296;14.470;2022-07-21T12:13:52;97198.10;;;37.83;19.70
47082;BME280;33066;49.296;14.470;2022-07-21T12:16:00;97201.22;;;38.00;19.19
47082;BME280;33066;49.296;14.470;2022-07-21T12:18:26;97199.72;;;37.91;19.35
47082;BME280;33066;49.296;14.470;2022-07-21T12:21:01;97198.31;;;37.63;19.42
47082;BME280;33066;49.296;14.470;2022-07-21T12:23:20;97195.89;;;37.76;19.47
47082;BME280;33066;49.296;14.470;2022-07-21T12:25:43;97194.27;;;38.41;19.55
47082;BME280;33066;49.296;14.470;2022-07-21T12:28:09;97190.48;;;38.03;18.98
47082;BME280;33066;49.296;14.470;2022-07-21T12:30:36;97186.51;;;38.60;19.01
47082;BME280;33066;49.296;14.470;2022-07-21T12:33:04;97185.30;;;38.59;18.85
47082;BME280;33066;49.296;14.470;2022-07-21T12:35:26;97179.35;;;39.36;18.46
47082;BME280;33066;49.296;14.470;2022-07-21T12:37:54;97177.68;;;39.28;18.14
47082;BME280;33066;49.296;14.470;2022-07-21T12:40:16;97179.62;;;39.46;18.66
47082;BME280;33066;49.296;14.470;2022-07-21T12:42:41;97179.62;;;39.71;18.05
47082;BME280;33066;49.296;14.470;2022-07-21T12:45:13;97178.57;;;39.39;17.96
47082;BME280;33066;49.296;14.470;2022-07-21T12:47:33;97174.53;;;39.95;18.02
47082;BME280;33066;49.296;14.470;2022-07-21T12:50:00;97177.18;;;40.53;18.25
47082;BME280;33066;49.296;14.470;2022-07-21T12:52:24;97173.61;;;40.50;17.12
47082;BME280;33066;49.296;14.470;2022-07-21T12:54:49;97169.40;;;40.58;17.09